Terminal Aerodrome Forecast
Issued by NWS

Home | Current Version | Previous Version | Graphics & Text | Print | Product List | Glossary On
Versions: 1 2 3 4 5 6 7 8 9 10 11 12 13 14 15 16 17 18 19 20 21 22 23 24 25
227
FTUS43 KLOT 080906 AAA
TAFDPA
TAF AMD
KDPA 080906Z 0809/0906 24009KT P6SM SKC
     FM081400 23011KT P6SM BKN100
     FM090300 23009KT P6SM -SHSN OVC060
      TEMPO 0904/0906 3SM -SHSN OVC040=

USA.gov is the U.S. government's official web portal to all federal, state and local government web resources and services.